createdAt,value
2022-09-30T00:01:17.750Z,154.40
2022-09-30T00:03:48.252Z,143.97
2022-09-30T00:06:16.880Z,129.23
2022-09-30T00:08:44.947Z,106.53
2022-09-30T00:11:16.390Z,93.77
2022-09-30T00:13:45.830Z,115.90
2022-09-30T00:16:15.754Z,124.07
2022-09-30T00:18:44.660Z,89.77
2022-09-30T00:21:13.684Z,91.37
2022-09-30T00:23:41.708Z,159.90
2022-09-30T00:26:13.034Z,127.73
2022-09-30T00:28:43.891Z,147.97
2022-09-30T00:31:14.873Z,143.57
2022-09-30T00:33:43.328Z,143.43
2022-09-30T00:36:12.142Z,123.47
2022-09-30T00:38:40.114Z,115.60
2022-09-30T00:41:08.157Z,117.67
2022-09-30T00:43:43.312Z,147.23
2022-09-30T00:46:18.557Z,137.73
2022-09-30T00:48:47.503Z,151.87
2022-09-30T00:51:15.460Z,159.83
2022-09-30T00:54:10.340Z,131.30
2022-09-30T00:56:40.986Z,117.37
2022-09-30T00:59:13.505Z,132.23
2022-09-30T01:01:42.622Z,109.33
2022-09-30T01:04:13.232Z,143.17
2022-09-30T01:06:41.505Z,129.47
2022-09-30T01:09:09.968Z,123.13
2022-09-30T01:11:38.116Z,128.27
2022-09-30T01:14:07.787Z,120.00
2022-09-30T01:16:55.696Z,131.27
2022-09-30T01:19:48.848Z,97.27
2022-09-30T01:22:23.353Z,103.60
2022-09-30T01:25:33.897Z,156.93
2022-09-30T01:28:15.009Z,128.47
2022-09-30T01:30:56.764Z,158.20
2022-09-30T01:33:34.943Z,139.63
2022-09-30T01:36:28.623Z,123.70
2022-09-30T01:39:05.788Z,143.33
2022-09-30T01:41:42.317Z,169.77
2022-09-30T01:44:15.640Z,168.90
2022-09-30T01:46:47.708Z,156.67
2022-09-30T01:49:22.284Z,142.83
2022-09-30T01:51:57.066Z,158.77
2022-09-30T01:54:28.900Z,125.10
2022-09-30T01:57:00.232Z,147.60
2022-09-30T01:59:32.750Z,160.20
2022-09-30T02:02:08.305Z,163.27
2022-09-30T02:04:40.389Z,133.73
2022-09-30T02:07:12.284Z,134.77
2022-09-30T02:09:42.757Z,137.23
2022-09-30T02:12:15.116Z,138.13
2022-09-30T02:14:45.725Z,140.83
2022-09-30T02:17:24.544Z,161.43
2022-09-30T02:19:55.832Z,133.97
2022-09-30T02:22:27.200Z,130.70
2022-09-30T02:24:59.051Z,135.60
2022-09-30T02:27:30.421Z,111.73
2022-09-30T02:30:00.869Z,120.90
2022-09-30T02:32:32.964Z,103.63
2022-09-30T02:35:05.315Z,153.03
2022-09-30T02:37:35.877Z,125.27
2022-09-30T02:40:08.101Z,137.77
2022-09-30T02:42:36.132Z,153.50
2022-09-30T02:45:08.685Z,150.97
2022-09-30T02:47:47.280Z,164.57
2022-09-30T02:50:19.718Z,128.37
2022-09-30T02:52:54.713Z,121.37
2022-09-30T02:55:29.430Z,189.90
2022-09-30T02:58:01.401Z,165.13
2022-09-30T03:00:30.281Z,146.67
2022-09-30T03:03:01.137Z,132.27
2022-09-30T03:05:29.394Z,128.10
2022-09-30T03:07:57.770Z,170.00
2022-09-30T03:10:26.079Z,145.77
2022-09-30T03:13:07.231Z,158.37
2022-09-30T03:15:43.168Z,146.60
2022-09-30T03:18:24.733Z,140.13
2022-09-30T03:21:01.878Z,126.97
2022-09-30T03:23:43.931Z,154.43
2022-09-30T03:26:19.321Z,119.23
2022-09-30T03:28:54.343Z,135.77
2022-09-30T03:31:27.486Z,132.63
2022-09-30T03:34:01.424Z,102.23
2022-09-30T03:36:35.440Z,140.13
2022-09-30T03:39:09.289Z,112.97
2022-09-30T03:41:41.412Z,131.43
2022-09-30T03:44:12.981Z,133.27
2022-09-30T03:46:43.862Z,116.07
2022-09-30T03:49:15.688Z,108.30
2022-09-30T03:51:43.814Z,113.33
2022-09-30T03:54:13.653Z,161.43
2022-09-30T03:56:43.312Z,120.93
2022-09-30T03:59:13.516Z,141.67
2022-09-30T04:01:41.616Z,112.23
2022-09-30T04:04:09.877Z,157.47
2022-09-30T04:06:39.260Z,83.93
2022-09-30T04:09:07.306Z,156.80
2022-09-30T04:11:35.405Z,180.73
2022-09-30T04:14:03.798Z,162.93
2022-09-30T04:16:32.089Z,130.17
2022-09-30T04:19:00.384Z,170.13
2022-09-30T04:21:29.079Z,150.00
2022-09-30T04:23:58.519Z,154.90
2022-09-30T04:26:26.548Z,123.97
2022-09-30T04:28:58.145Z,126.13
2022-09-30T04:31:26.519Z,153.20
2022-09-30T04:33:57.006Z,102.00
2022-09-30T04:36:25.087Z,163.00
2022-09-30T04:38:53.574Z,119.93
2022-09-30T04:41:23.205Z,101.80
2022-09-30T04:43:51.215Z,123.03
2022-09-30T04:46:20.969Z,106.40
2022-09-30T04:48:48.997Z,86.10
2022-09-30T04:51:18.850Z,112.27
2022-09-30T04:53:47.757Z,93.03
2022-09-30T04:56:16.759Z,116.20
2022-09-30T04:58:46.854Z,122.53
2022-09-30T05:01:16.251Z,137.17
2022-09-30T05:03:44.828Z,113.63
2022-09-30T05:06:13.212Z,161.93
2022-09-30T05:08:45.692Z,125.57
2022-09-30T05:11:16.573Z,117.30
2022-09-30T05:13:46.474Z,141.17
2022-09-30T05:16:15.922Z,161.27
2022-09-30T05:18:46.228Z,163.37
2022-09-30T05:21:15.349Z,172.03
2022-09-30T05:23:43.541Z,141.00
2022-09-30T05:26:12.784Z,156.80
2022-09-30T05:28:41.183Z,144.73
2022-09-30T05:31:12.329Z,168.40
2022-09-30T05:33:41.811Z,125.80
2022-09-30T05:36:13.602Z,138.20
2022-09-30T05:38:41.838Z,138.77
2022-09-30T05:41:11.474Z,143.17
2022-09-30T05:43:40.417Z,175.23
2022-09-30T05:46:10.196Z,135.17
2022-09-30T05:48:38.198Z,163.10
2022-09-30T05:51:07.531Z,144.57
2022-09-30T05:53:38.682Z,146.70
2022-09-30T05:56:07.423Z,157.53
2022-09-30T05:58:35.582Z,144.73
2022-09-30T06:01:12.917Z,129.73
2022-09-30T06:03:42.968Z,127.73
2022-09-30T06:06:11.483Z,147.57
2022-09-30T06:08:40.333Z,144.17
2022-09-30T06:11:12.762Z,149.23
2022-09-30T06:13:41.523Z,134.43
2022-09-30T06:16:10.447Z,132.77
2022-09-30T06:18:41.131Z,128.33
2022-09-30T06:21:12.538Z,182.27
2022-09-30T06:24:09.389Z,166.33
2022-09-30T06:26:37.375Z,152.40
2022-09-30T06:29:05.404Z,166.00
2022-09-30T06:31:33.507Z,152.03
2022-09-30T06:34:02.346Z,173.83
2022-09-30T06:36:33.391Z,152.93
2022-09-30T06:39:01.960Z,128.37
2022-09-30T06:41:30.059Z,136.30
2022-09-30T06:44:02.526Z,131.50
2022-09-30T06:46:32.215Z,108.00
2022-09-30T06:49:11.264Z,118.43
2022-09-30T06:51:42.043Z,113.77
2022-09-30T06:54:10.334Z,99.20
2022-09-30T06:56:38.341Z,119.07
2022-09-30T06:59:07.108Z,152.37
2022-09-30T07:01:35.209Z,130.73
2022-09-30T07:04:09.335Z,120.47
2022-09-30T07:06:38.869Z,624.20
2022-09-30T07:09:09.247Z,124.43
2022-09-30T07:11:38.312Z,96.30
2022-09-30T07:14:06.525Z,114.07
2022-09-30T07:16:34.977Z,113.03
2022-09-30T07:19:03.317Z,94.27
2022-09-30T07:21:32.405Z,108.70
2022-09-30T07:24:01.120Z,106.73
2022-09-30T07:26:31.114Z,102.13
2022-09-30T07:29:00.099Z,96.50
2022-09-30T07:31:32.904Z,116.33
2022-09-30T07:34:02.036Z,79.17
2022-09-30T07:36:33.635Z,95.23
2022-09-30T07:39:05.848Z,69.97
2022-09-30T07:41:38.130Z,80.77
2022-09-30T07:44:06.802Z,73.70
2022-09-30T07:46:38.708Z,63.33
2022-09-30T07:49:09.037Z,75.53
2022-09-30T07:51:38.881Z,82.47
2022-09-30T07:54:08.813Z,63.93
2022-09-30T07:59:28.193Z,548.85
2022-09-30T08:01:56.435Z,60.57
2022-09-30T08:04:25.989Z,44.43
2022-09-30T08:06:55.911Z,39.30
2022-09-30T08:09:26.962Z,42.00
2022-09-30T08:11:57.125Z,47.47
2022-09-30T08:14:26.415Z,51.23
2022-09-30T08:16:55.862Z,49.17
2022-09-30T08:19:25.354Z,51.00
2022-09-30T08:21:54.287Z,55.53
2022-09-30T08:24:23.192Z,46.93
2022-09-30T08:26:51.378Z,43.73
2022-09-30T08:29:35.773Z,44.77
2022-09-30T08:32:09.039Z,40.60
2022-09-30T08:34:37.186Z,37.57
2022-09-30T08:37:09.219Z,37.83
2022-09-30T08:39:37.883Z,39.53
2022-09-30T08:42:35.977Z,34.17
2022-09-30T08:45:13.401Z,40.00
2022-09-30T08:47:45.227Z,39.47
2022-09-30T08:50:17.816Z,34.27
2022-09-30T08:52:49.583Z,30.97
2022-09-30T08:55:23.338Z,33.00
2022-09-30T08:57:52.004Z,33.57
2022-09-30T09:00:22.524Z,31.90
2022-09-30T09:02:53.776Z,35.63
2022-09-30T09:05:32.075Z,36.90
2022-09-30T09:08:04.127Z,35.90
2022-09-30T09:10:39.197Z,35.77
2022-09-30T09:13:14.417Z,28.13
2022-09-30T09:15:51.985Z,28.73
2022-09-30T09:18:29.988Z,30.20
2022-09-30T09:21:00.401Z,29.90
2022-09-30T09:23:31.264Z,23.63
2022-09-30T09:26:00.136Z,18.50
2022-09-30T09:28:36.961Z,39.67
2022-09-30T09:31:06.987Z,14.60
2022-09-30T09:33:37.406Z,12.27
2022-09-30T09:36:12.883Z,9.53
2022-09-30T09:38:52.118Z,8.57
2022-09-30T09:41:27.146Z,7.70
2022-09-30T09:44:00.476Z,7.93
2022-09-30T09:46:32.214Z,6.57
2022-09-30T09:49:30.122Z,6.87
2022-09-30T09:52:31.336Z,7.70
2022-09-30T09:55:00.883Z,7.07
2022-09-30T09:57:32.475Z,7.37
2022-09-30T10:00:22.526Z,7.43
2022-09-30T10:03:03.853Z,7.67
2022-09-30T10:05:39.411Z,7.10
2022-09-30T10:08:13.274Z,6.60
2022-09-30T10:10:49.642Z,7.00
2022-09-30T10:13:19.352Z,6.40
2022-09-30T10:15:47.908Z,6.60
2022-09-30T10:18:22.663Z,5.57
2022-09-30T10:20:53.602Z,6.80
2022-09-30T10:23:23.524Z,7.00
2022-09-30T10:25:59.969Z,7.30
2022-09-30T10:28:30.189Z,6.33
2022-09-30T10:31:08.907Z,6.70
2022-09-30T10:33:44.997Z,6.47
2022-09-30T10:36:16.406Z,5.83
2022-09-30T10:38:50.658Z,6.00
2022-09-30T10:41:24.292Z,6.67
2022-09-30T10:43:54.293Z,6.10
2022-09-30T10:46:27.259Z,5.70
2022-09-30T10:48:58.934Z,5.53
2022-09-30T10:51:34.015Z,5.83
2022-09-30T10:54:02.413Z,6.00
2022-09-30T10:56:44.627Z,5.57
2022-09-30T10:59:24.134Z,5.80
2022-09-30T11:01:57.607Z,4.60
2022-09-30T11:04:33.619Z,5.47
2022-09-30T11:07:11.379Z,5.87
2022-09-30T11:09:45.917Z,5.13
2022-09-30T11:12:20.303Z,5.43
2022-09-30T11:14:54.720Z,5.07
2022-09-30T11:17:33.669Z,4.87
2022-09-30T11:20:12.909Z,4.17
2022-09-30T11:22:47.008Z,4.40
2022-09-30T11:25:16.149Z,3.87
2022-09-30T11:27:59.481Z,3.73
2022-09-30T11:30:32.551Z,3.90
2022-09-30T11:33:15.873Z,3.00
2022-09-30T11:35:52.810Z,3.20
2022-09-30T11:38:32.195Z,2.90
2022-09-30T11:41:06.386Z,2.93
2022-09-30T11:43:41.528Z,3.03
2022-09-30T11:46:30.678Z,2.93
2022-09-30T11:49:14.385Z,3.30
2022-09-30T11:51:49.649Z,3.17
2022-09-30T11:54:28.562Z,2.90
2022-09-30T11:57:02.012Z,3.10
2022-09-30T11:59:35.266Z,2.83
2022-09-30T12:02:05.431Z,3.50
2022-09-30T12:04:37.054Z,3.50
2022-09-30T12:07:12.583Z,3.70
2022-09-30T12:09:44.269Z,4.00
2022-09-30T12:12:16.710Z,3.43
2022-09-30T12:14:47.936Z,3.40
2022-09-30T12:17:21.473Z,3.43
2022-09-30T12:19:52.067Z,3.70
2022-09-30T12:22:26.137Z,3.20
2022-09-30T12:24:54.164Z,3.20
2022-09-30T12:27:25.782Z,3.23
2022-09-30T12:30:17.182Z,3.07
2022-09-30T12:33:16.522Z,3.23
2022-09-30T12:36:10.976Z,3.30
2022-09-30T12:38:54.841Z,3.50
2022-09-30T12:41:35.376Z,3.07
2022-09-30T12:44:29.628Z,3.70
2022-09-30T12:47:11.649Z,3.30
2022-09-30T12:49:41.179Z,3.20
2022-09-30T12:52:14.592Z,3.20
2022-09-30T12:54:48.854Z,3.63
2022-09-30T12:57:20.780Z,3.50
2022-09-30T12:59:52.643Z,3.60
2022-09-30T13:02:30.250Z,3.00
2022-09-30T13:05:44.704Z,3.20
2022-09-30T13:08:25.950Z,3.33
2022-09-30T13:10:59.211Z,3.63
2022-09-30T13:13:30.586Z,3.33
2022-09-30T13:16:03.292Z,3.30
2022-09-30T13:18:59.755Z,3.63
2022-09-30T13:21:27.753Z,3.67
2022-09-30T13:23:56.954Z,3.60
2022-09-30T13:26:38.597Z,3.80
2022-09-30T13:29:29.994Z,3.63
2022-09-30T13:32:05.599Z,3.60
2022-09-30T13:34:36.464Z,3.40
2022-09-30T13:37:05.706Z,3.50
2022-09-30T13:39:45.612Z,3.50
2022-09-30T13:42:22.121Z,3.73
2022-09-30T13:45:00.839Z,3.97
2022-09-30T13:47:31.669Z,3.60
2022-09-30T13:50:03.232Z,3.73
2022-09-30T13:52:34.223Z,3.97
2022-09-30T13:55:07.932Z,3.70
2022-09-30T13:57:43.645Z,4.63
2022-09-30T14:00:15.186Z,4.10
2022-09-30T14:03:08.598Z,4.03
2022-09-30T14:05:54.095Z,4.27
2022-09-30T14:08:56.486Z,3.87
2022-09-30T14:11:41.191Z,4.10
2022-09-30T14:14:26.943Z,4.23
2022-09-30T14:17:30.114Z,4.90
2022-09-30T14:20:12.215Z,6.03
2022-09-30T14:22:41.910Z,4.50
2022-09-30T14:25:14.827Z,4.43
2022-09-30T14:28:04.408Z,4.33
2022-09-30T14:30:39.565Z,4.67
2022-09-30T14:33:11.657Z,4.30
2022-09-30T14:35:41.584Z,4.30
2022-09-30T14:38:15.784Z,4.53
2022-09-30T14:40:51.022Z,3.93
2022-09-30T14:43:44.708Z,4.50
2022-09-30T14:46:27.793Z,4.07
2022-09-30T14:48:58.958Z,4.27
2022-09-30T14:51:27.471Z,5.30
2022-09-30T14:53:56.936Z,7.53
2022-09-30T14:56:30.810Z,7.33
2022-09-30T14:59:00.934Z,4.17
2022-09-30T15:01:34.546Z,3.90
2022-09-30T15:04:04.730Z,4.33
2022-09-30T15:06:35.290Z,4.20
2022-09-30T15:09:06.482Z,4.53
2022-09-30T15:11:39.512Z,4.23
2022-09-30T15:14:10.220Z,5.00
2022-09-30T15:17:05.154Z,5.80
2022-09-30T15:19:35.338Z,4.80
2022-09-30T15:22:05.234Z,5.10
2022-09-30T15:24:33.905Z,4.70
2022-09-30T15:27:02.859Z,5.03
2022-09-30T15:29:31.035Z,4.70
2022-09-30T15:32:03.155Z,4.50
2022-09-30T15:34:31.775Z,4.60
2022-09-30T15:37:06.358Z,5.40
2022-09-30T15:39:54.470Z,5.13
2022-09-30T15:42:36.181Z,5.30
2022-09-30T15:45:06.443Z,4.40
2022-09-30T15:47:54.496Z,5.00
2022-09-30T15:50:37.582Z,4.20
2022-09-30T15:53:06.219Z,4.90
2022-09-30T15:55:43.153Z,3.97
2022-09-30T15:58:33.724Z,4.10
2022-09-30T16:01:26.834Z,4.33
2022-09-30T16:04:44.704Z,3.90
2022-09-30T16:07:18.025Z,3.73
2022-09-30T16:09:48.870Z,4.30
2022-09-30T16:12:19.661Z,4.37
2022-09-30T16:14:50.033Z,4.40
2022-09-30T16:17:19.982Z,4.00
2022-09-30T16:19:52.126Z,4.10
2022-09-30T16:22:52.485Z,4.00
2022-09-30T16:25:23.441Z,4.27
2022-09-30T16:27:57.783Z,4.23
2022-09-30T16:30:26.287Z,4.50
2022-09-30T16:32:58.177Z,4.80
2022-09-30T16:35:28.164Z,4.87
2022-09-30T16:38:02.413Z,4.40
2022-09-30T16:40:32.467Z,5.87
2022-09-30T16:43:03.252Z,6.30
2022-09-30T16:45:33.886Z,6.13
2022-09-30T16:48:02.991Z,6.70
2022-09-30T16:50:35.007Z,6.50
2022-09-30T16:53:04.410Z,5.93
2022-09-30T16:55:32.870Z,5.40
2022-09-30T16:58:00.939Z,5.78
2022-09-30T17:00:29.944Z,5.47
2022-09-30T17:02:58.096Z,5.60
2022-09-30T17:05:27.619Z,7.30
2022-09-30T17:07:57.071Z,6.80
2022-09-30T17:10:29.113Z,6.97
2022-09-30T17:12:57.578Z,6.63
2022-09-30T17:15:25.667Z,6.70
2022-09-30T17:17:54.041Z,7.60
2022-09-30T17:20:23.285Z,7.50
2022-09-30T17:22:51.807Z,7.00
2022-09-30T17:25:20.163Z,6.60
2022-09-30T17:27:51.061Z,6.40
2022-09-30T17:30:19.625Z,7.90
2022-09-30T17:32:47.982Z,6.97
2022-09-30T17:35:16.780Z,7.30
2022-09-30T17:37:46.534Z,6.43
2022-09-30T17:40:32.882Z,10.03
2022-09-30T17:43:14.160Z,10.57
2022-09-30T17:45:44.499Z,8.23
2022-09-30T17:48:13.530Z,8.63
2022-09-30T17:50:44.264Z,8.17
2022-09-30T17:53:14.186Z,8.00
2022-09-30T17:55:42.278Z,7.37
2022-09-30T17:58:12.387Z,7.50
2022-09-30T18:00:40.460Z,7.60
2022-09-30T18:03:08.846Z,8.07
2022-09-30T18:05:37.206Z,8.37
2022-09-30T18:08:05.642Z,9.00
2022-09-30T18:10:33.737Z,8.27
2022-09-30T18:13:01.704Z,9.03
2022-09-30T18:15:31.185Z,8.30
2022-09-30T18:17:59.200Z,9.00
2022-09-30T18:20:27.213Z,8.70
2022-09-30T18:22:55.213Z,8.20
2022-09-30T18:25:23.825Z,9.37
2022-09-30T18:27:53.631Z,9.67
2022-09-30T18:30:21.788Z,9.70
2022-09-30T18:32:52.701Z,9.10
2022-09-30T18:35:22.742Z,7.20
2022-09-30T18:37:51.552Z,7.33
2022-09-30T18:40:21.581Z,8.17
2022-09-30T18:42:49.966Z,9.53
2022-09-30T18:45:18.548Z,10.80
2022-09-30T18:47:46.589Z,9.60
2022-09-30T18:50:17.988Z,8.33
2022-09-30T18:52:46.078Z,7.50
2022-09-30T18:55:14.152Z,8.13
2022-09-30T18:57:42.236Z,7.80
2022-09-30T19:00:11.436Z,6.90
2022-09-30T19:02:40.762Z,6.90
2022-09-30T19:05:09.396Z,7.80
2022-09-30T19:07:39.492Z,7.90
2022-09-30T19:10:09.165Z,7.33
2022-09-30T19:12:38.758Z,10.27
2022-09-30T19:15:08.991Z,10.13
2022-09-30T19:17:37.530Z,9.37
2022-09-30T19:20:06.905Z,8.67
2022-09-30T19:22:37.258Z,8.63
2022-09-30T19:25:07.878Z,8.30
2022-09-30T19:27:37.720Z,8.87
2022-09-30T19:30:06.820Z,11.20
2022-09-30T19:32:35.109Z,11.87
2022-09-30T19:35:06.458Z,10.63
2022-09-30T19:37:35.386Z,9.87
2022-09-30T19:40:19.030Z,10.90
2022-09-30T19:42:49.644Z,9.10
2022-09-30T19:45:22.794Z,9.80
2022-09-30T19:47:52.590Z,9.40
2022-09-30T19:50:20.616Z,9.30
2022-09-30T19:52:57.080Z,8.10
2022-09-30T19:55:27.597Z,9.17
2022-09-30T19:57:55.739Z,8.50
2022-09-30T20:00:24.154Z,7.87
2022-09-30T20:02:52.663Z,8.00
2022-09-30T20:05:21.562Z,10.40
2022-09-30T20:07:51.250Z,9.03
2022-09-30T20:10:19.785Z,9.53
2022-09-30T20:12:49.143Z,9.57
2022-09-30T20:15:35.007Z,8.90
2022-09-30T20:18:03.020Z,9.70
2022-09-30T20:20:37.281Z,8.60
2022-09-30T20:23:05.476Z,7.77
2022-09-30T20:25:35.295Z,7.90
2022-09-30T20:28:05.483Z,8.23
2022-09-30T20:30:34.070Z,7.73
2022-09-30T20:33:02.505Z,9.70
2022-09-30T20:35:30.546Z,9.60
2022-09-30T20:37:58.730Z,10.57
2022-09-30T20:40:26.910Z,10.00
2022-09-30T20:43:01.449Z,10.07
2022-09-30T20:45:31.496Z,8.53
2022-09-30T20:47:59.624Z,9.50
2022-09-30T20:50:36.419Z,8.20
2022-09-30T20:53:06.428Z,8.97
2022-09-30T20:55:35.982Z,9.43
2022-09-30T20:58:04.235Z,9.90
2022-09-30T21:00:34.488Z,8.47
2022-09-30T21:03:02.529Z,9.30
2022-09-30T21:05:31.943Z,8.30
2022-09-30T21:08:00.578Z,8.97
2022-09-30T21:10:29.743Z,8.20
2022-09-30T21:12:59.037Z,8.00
2022-09-30T21:15:27.754Z,8.53
2022-09-30T21:17:57.278Z,8.57
2022-09-30T21:20:25.544Z,8.40
2022-09-30T21:22:53.847Z,9.10
2022-09-30T21:25:21.996Z,8.47
2022-09-30T21:27:50.126Z,8.03
2022-09-30T21:30:19.263Z,9.30
2022-09-30T21:32:48.825Z,9.50
2022-09-30T21:35:18.352Z,8.00
2022-09-30T21:37:49.594Z,8.00
2022-09-30T21:40:18.996Z,8.37
2022-09-30T21:42:46.958Z,8.83
2022-09-30T21:45:15.089Z,8.87
2022-09-30T21:47:43.082Z,9.20
2022-09-30T21:50:11.239Z,8.87
2022-09-30T21:52:40.599Z,11.03
2022-09-30T21:55:11.826Z,10.37
2022-09-30T21:57:40.112Z,9.60
2022-09-30T22:00:09.045Z,9.20
2022-09-30T22:02:41.943Z,9.20
2022-09-30T22:05:10.325Z,9.10
2022-09-30T22:07:38.834Z,9.33
2022-09-30T22:10:09.607Z,9.93
2022-09-30T22:12:38.234Z,11.07
2022-09-30T22:15:07.147Z,10.53
2022-09-30T22:17:35.185Z,10.03
2022-09-30T22:20:03.256Z,11.57
2022-09-30T22:22:31.273Z,11.70
2022-09-30T22:24:59.273Z,11.20
2022-09-30T22:27:28.700Z,10.80
2022-09-30T22:29:56.661Z,10.50
2022-09-30T22:32:24.816Z,10.40
2022-09-30T22:35:10.439Z,10.97
2022-09-30T22:38:01.177Z,10.37
2022-09-30T22:40:29.221Z,11.00
2022-09-30T22:42:58.530Z,9.77
2022-09-30T22:45:26.529Z,10.97
2022-09-30T22:47:56.804Z,10.87
2022-09-30T22:50:26.072Z,10.30
2022-09-30T22:52:54.042Z,9.87
2022-09-30T22:55:22.255Z,11.57
2022-09-30T22:57:50.213Z,9.83
2022-09-30T23:00:19.568Z,10.67
2022-09-30T23:02:48.326Z,11.03
2022-09-30T23:05:16.583Z,11.17
2022-09-30T23:07:44.599Z,9.40
2022-09-30T23:10:12.684Z,10.20
2022-09-30T23:12:41.006Z,9.10
2022-09-30T23:15:09.586Z,8.67
2022-09-30T23:17:39.005Z,8.50
2022-09-30T23:20:08.565Z,9.07
2022-09-30T23:22:36.526Z,9.17
2022-09-30T23:25:04.817Z,8.43
2022-09-30T23:27:58.277Z,8.77
2022-09-30T23:30:26.832Z,8.70
2022-09-30T23:32:56.257Z,8.40
2022-09-30T23:35:24.248Z,9.20
2022-09-30T23:37:52.951Z,10.47
2022-09-30T23:40:20.963Z,10.97
2022-09-30T23:42:50.413Z,10.47
2022-09-30T23:45:18.368Z,11.33
2022-09-30T23:47:48.363Z,10.67
2022-09-30T23:50:17.815Z,11.30
2022-09-30T23:52:45.769Z,13.43
2022-09-30T23:55:16.839Z,14.80
2022-09-30T23:57:46.866Z,15.77
